Time;durP1;ratioP1;P1;durP2;ratioP2;P2;SDS_P1;SDS_P2;PMS_P1;PMS_P2;Temp;Humidity;BMP_temperature;BMP_pressure;BME280_temperature;BME280_humidity;BME280_pressure;Samples;Min_cycle;Max_cycle;Signal;HPM_P1;HPM_P2
2022/10/31 00:03:11;;;;;;;24.65;15.88;;;;;;;11.42;100.00;101853.25;10360335;28;20091;-78
2022/10/31 00:08:11;;;;;;;36.85;17.08;;;;;;;11.23;100.00;101848.59;10342103;28;20453;-78
2022/10/31 00:13:12;;;;;;;31.15;18.30;;;;;;;11.11;100.00;101847.03;10358214;28;20048;-78
2022/10/31 00:18:13;;;;;;;29.38;18.83;;;;;;;10.96;100.00;101833.91;10356679;28;20544;-78
2022/10/31 00:23:13;;;;;;;24.02;14.60;;;;;;;10.79;100.00;101838.09;10358350;28;20139;-78
2022/10/31 00:28:14;;;;;;;31.52;18.73;;;;;;;10.71;100.00;101835.00;10374913;28;20072;-78
2022/10/31 00:33:14;;;;;;;34.30;18.02;;;;;;;10.64;100.00;101826.66;10358742;28;20046;-78
2022/10/31 00:38:15;;;;;;;37.20;21.25;;;;;;;10.74;100.00;101839.53;10340328;28;20490;-78
2022/10/31 00:43:15;;;;;;;49.70;23.95;;;;;;;10.72;100.00;101843.75;10358967;28;20046;-78
2022/10/31 00:48:16;;;;;;;41.80;25.58;;;;;;;10.60;100.00;101840.38;10357698;28;20589;-77
2022/10/31 00:53:16;;;;;;;26.40;17.30;;;;;;;10.65;100.00;101831.09;10324371;28;20044;-78
2022/10/31 00:58:17;;;;;;;29.65;19.13;;;;;;;10.45;100.00;101828.13;10341237;28;20132;-78
2022/10/31 01:03:17;;;;;;;31.42;17.20;;;;;;;10.43;100.00;101834.97;10357577;28;20115;-78
2022/10/31 01:08:18;;;;;;;33.03;22.50;;;;;;;10.50;100.00;101837.16;10358454;28;20076;-77
2022/10/31 01:13:18;;;;;;;33.97;21.25;;;;;;;10.52;100.00;101842.53;10359626;28;20176;-78
2022/10/31 01:18:19;;;;;;;45.35;23.73;;;;;;;10.49;100.00;101851.06;10356588;28;20034;-78
2022/10/31 01:23:19;;;;;;;37.97;21.75;;;;;;;10.60;100.00;101850.84;10358405;28;20064;-77
2022/10/31 01:28:20;;;;;;;50.67;24.02;;;;;;;10.62;100.00;101839.66;10357631;28;20049;-78
2022/10/31 01:33:20;;;;;;;48.60;26.85;;;;;;;10.65;100.00;101847.72;10362134;28;20133;-78
2022/10/31 01:38:21;;;;;;;37.35;21.05;;;;;;;10.71;100.00;101845.50;10362287;28;20052;-78
2022/10/31 01:43:22;;;;;;;38.33;22.98;;;;;;;10.72;100.00;101836.81;10362038;28;20038;-78
2022/10/31 01:48:24;;;;;;;43.13;24.88;;;;;;;10.77;100.00;101836.22;10364745;28;20038;-77
2022/10/31 01:53:25;;;;;;;42.95;23.75;;;;;;;10.78;100.00;101832.78;10347436;28;20404;-78
2022/10/31 01:58:26;;;;;;;46.05;25.52;;;;;;;10.65;100.00;101838.94;10362268;28;20069;-77
2022/10/31 02:03:27;;;;;;;46.08;25.90;;;;;;;10.63;100.00;101830.09;10361812;28;20386;-77
2022/10/31 02:08:29;;;;;;;48.45;25.25;;;;;;;10.66;100.00;101823.34;10362071;28;20049;-78
2022/10/31 02:13:29;;;;;;;47.80;27.00;;;;;;;10.61;100.00;101816.91;10343803;28;20037;-78
2022/10/31 02:18:30;;;;;;;37.53;22.73;;;;;;;10.51;100.00;101823.28;10361867;28;20551;-78
2022/10/31 02:23:47;;;;;;;37.60;25.33;;;;;;;10.47;100.00;101823.88;10346060;28;20049;-77
2022/10/31 02:28:54;;;;;;;40.88;22.95;;;;;;;10.40;100.00;101812.13;10360354;28;20042;-78
2022/10/31 02:34:00;;;;;;;44.13;25.17;;;;;;;10.26;100.00;101813.81;10362187;28;20052;-78
2022/10/31 02:39:09;;;;;;;50.45;24.45;;;;;;;10.08;100.00;101823.09;10360438;28;20121;-78
2022/10/31 02:44:37;;;;;;;32.95;18.88;;;;;;;9.95;100.00;101827.53;10362151;28;20038;-78
2022/10/31 02:49:55;;;;;;;42.92;22.42;;;;;;;9.90;100.00;101833.28;10360531;28;20042;-78
2022/10/31 02:54:55;;;;;;;28.90;18.65;;;;;;;9.91;100.00;101828.13;10377409;28;20041;-78
2022/10/31 03:00:07;;;;;;;36.03;19.83;;;;;;;9.82;100.00;101823.22;10341921;28;20509;-78
2022/10/31 03:05:11;;;;;;;50.57;27.00;;;;;;;9.77;100.00;101827.25;10360552;28;20037;-77
2022/10/31 03:10:15;;;;;;;43.00;26.70;;;;;;;9.77;100.00;101818.47;10360326;28;20049;-79
2022/10/31 03:15:25;;;;;;;46.80;27.08;;;;;;;9.76;100.00;101822.81;10360051;28;20042;-78
2022/10/31 03:20:33;;;;;;;37.47;26.42;;;;;;;9.70;100.00;101818.06;10360154;28;20044;-78
2022/10/31 03:25:34;;;;;;;39.00;24.90;;;;;;;9.67;100.00;101825.72;10344357;28;20034;-78
2022/10/31 03:30:36;;;;;;;50.13;31.27;;;;;;;9.63;100.00;101823.69;10357905;28;20030;-78
2022/10/31 03:35:36;;;;;;;42.57;25.13;;;;;;;9.59;100.00;101818.19;10343430;28;20124;-78
2022/10/31 03:40:37;;;;;;;66.10;29.75;;;;;;;9.37;100.00;101815.00;10340804;28;20398;-78
2022/10/31 03:45:43;;;;;;;43.92;26.73;;;;;;;9.25;100.00;101795.88;10342939;28;20117;-78
2022/10/31 03:51:05;;;;;;;42.60;26.02;;;;;;;9.10;100.00;101794.03;10342434;28;20041;-78
2022/10/31 03:56:10;;;;;;;46.58;28.65;;;;;;;9.10;100.00;101798.38;10360106;28;20041;-78
2022/10/31 04:01:11;;;;;;;46.53;29.10;;;;;;;9.01;100.00;101797.75;10341085;28;20375;-78
2022/10/31 04:06:13;;;;;;;45.63;27.57;;;;;;;8.96;100.00;101795.72;10326865;28;20493;-78
2022/10/31 04:11:14;;;;;;;41.33;28.80;;;;;;;8.90;100.00;101797.00;10340487;28;20103;-78
2022/10/31 04:16:14;;;;;;;41.47;26.95;;;;;;;8.90;100.00;101816.19;10341944;28;20045;-78
2022/10/31 04:21:15;;;;;;;49.75;26.52;;;;;;;8.92;100.00;101808.44;10356941;28;20050;-77
2022/10/31 04:26:15;;;;;;;47.75;28.25;;;;;;;8.93;100.00;101818.09;10360186;28;20080;-78
2022/10/31 04:31:16;;;;;;;63.00;32.28;;;;;;;8.82;100.00;101820.84;10358694;28;20077;-79
2022/10/31 04:36:16;;;;;;;53.38;31.58;;;;;;;8.75;100.00;101802.94;10358024;28;20042;-80
2022/10/31 04:41:17;;;;;;;46.22;27.50;;;;;;;8.73;100.00;101804.53;10357644;28;20558;-77
2022/10/31 04:46:17;;;;;;;45.25;27.42;;;;;;;8.75;100.00;101804.66;10357649;28;20048;-79
2022/10/31 04:51:18;;;;;;;37.42;24.27;;;;;;;8.73;100.00;101803.66;10340463;28;20501;-77
2022/10/31 04:56:18;;;;;;;63.38;30.05;;;;;;;8.76;100.00;101807.38;10359566;28;20038;-78
2022/10/31 05:01:19;;;;;;;40.83;23.88;;;;;;;8.80;100.00;101808.50;10356436;28;20042;-78
2022/10/31 05:06:19;;;;;;;41.97;27.20;;;;;;;8.71;100.00;101792.22;10362229;28;20046;-78
2022/10/31 05:11:20;;;;;;;50.72;27.45;;;;;;;8.68;100.00;101792.00;10365906;28;20038;-76
2022/10/31 05:16:20;;;;;;;40.85;23.02;;;;;;;8.56;100.00;101781.56;10366006;28;20044;-76
2022/10/31 05:21:21;;;;;;;41.90;21.95;;;;;;;8.42;100.00;101770.16;10348830;28;20042;-78
2022/10/31 05:26:21;;;;;;;44.88;26.05;;;;;;;8.28;100.00;101782.19;10345176;28;21566;-78
2022/10/31 05:31:22;;;;;;;37.42;23.48;;;;;;;8.18;100.00;101771.09;10366040;28;20125;-79
2022/10/31 05:36:22;;;;;;;33.80;25.15;;;;;;;8.07;100.00;101769.41;10364260;28;20052;-78
2022/10/31 05:41:23;;;;;;;30.13;23.30;;;;;;;8.00;100.00;101777.59;10363878;28;20049;-79
2022/10/31 05:46:23;;;;;;;32.92;23.27;;;;;;;7.90;100.00;101770.81;10358619;28;20125;-76
2022/10/31 05:51:24;;;;;;;37.08;26.10;;;;;;;8.05;100.00;101777.16;10362478;28;21807;-78
2022/10/31 05:56:24;;;;;;;32.20;18.27;;;;;;;8.14;100.00;101773.41;10361346;28;20049;-77
2022/10/31 06:01:25;;;;;;;35.25;20.23;;;;;;;8.19;100.00;101783.34;10360887;28;20116;-76
2022/10/31 06:06:25;;;;;;;56.60;32.05;;;;;;;8.20;100.00;101776.44;10361747;28;20040;-77
2022/10/31 06:11:26;;;;;;;43.00;26.30;;;;;;;8.18;100.00;101762.38;10353995;28;20030;-78
2022/10/31 06:16:27;;;;;;;31.67;22.15;;;;;;;7.92;100.00;101764.00;10356516;28;20079;-77
2022/10/31 06:21:27;;;;;;;29.40;20.00;;;;;;;7.69;100.00;101770.13;10359776;28;20038;-78
2022/10/31 06:26:28;;;;;;;31.23;21.52;;;;;;;7.59;100.00;101769.44;10341246;28;20045;-78
2022/10/31 06:31:29;;;;;;;36.33;23.30;;;;;;;7.52;100.00;101768.91;10359484;28;20038;-78
2022/10/31 06:36:30;;;;;;;64.95;27.55;;;;;;;7.54;100.00;101770.81;10360286;28;20041;-79
2022/10/31 06:41:30;;;;;;;77.65;30.40;;;;;;;7.54;100.00;101768.19;10360186;28;20061;-78
2022/10/31 06:46:33;;;;;;;41.20;27.02;;;;;;;7.59;100.00;101764.25;10359774;28;20183;-78
2022/10/31 06:51:34;;;;;;;66.38;30.05;;;;;;;7.64;100.00;101756.78;10342633;28;20481;-80
2022/10/31 06:56:34;;;;;;;67.15;29.48;;;;;;;7.69;100.00;101751.91;10363546;28;20058;-79
2022/10/31 07:01:35;;;;;;;44.22;26.60;;;;;;;7.70;100.00;101770.25;10363004;28;20042;-80
2022/10/31 07:06:36;;;;;;;44.97;28.33;;;;;;;7.74;100.00;101768.78;10362969;28;20080;-80
2022/10/31 07:11:36;;;;;;;35.88;26.05;;;;;;;7.72;100.00;101770.34;10378874;28;20037;-79
2022/10/31 07:16:37;;;;;;;36.97;26.70;;;;;;;7.73;100.00;101778.31;10368633;28;20038;-78
2022/10/31 07:21:37;;;;;;;35.25;25.00;;;;;;;7.82;100.00;101770.25;10388425;28;20124;-78
2022/10/31 07:26:38;;;;;;;32.97;24.02;;;;;;;7.95;100.00;101774.66;10360921;28;20115;-80
2022/10/31 07:31:38;;;;;;;38.83;23.90;;;;;;;8.08;100.00;101772.16;10371495;28;20041;-79
2022/10/31 07:36:39;;;;;;;38.67;24.63;;;;;;;8.21;100.00;101781.75;10365824;28;20474;-79
2022/10/31 07:41:39;;;;;;;34.30;25.45;;;;;;;8.27;100.00;101785.59;10361099;28;20071;-79
2022/10/31 07:46:40;;;;;;;34.97;23.63;;;;;;;8.36;100.00;101778.44;10395820;28;20041;-80
2022/10/31 07:51:40;;;;;;;36.28;22.55;;;;;;;8.50;100.00;101767.31;10347700;28;20125;-80
2022/10/31 07:56:41;;;;;;;32.10;20.05;;;;;;;8.68;100.00;101776.31;10356886;28;20120;-78
2022/10/31 08:01:41;;;;;;;37.88;20.80;;;;;;;8.92;100.00;101771.88;10361749;28;20099;-79
2022/10/31 08:06:42;;;;;;;43.30;27.15;;;;;;;9.25;100.00;101775.00;10357853;28;20133;-77
2022/10/31 08:11:42;;;;;;;40.03;21.98;;;;;;;9.50;100.00;101789.69;10366268;28;20132;-77
2022/10/31 08:16:43;;;;;;;30.45;18.10;;;;;;;9.53;100.00;101793.44;10352373;28;20571;-77
2022/10/31 08:21:44;;;;;;;29.25;18.55;;;;;;;9.73;100.00;101787.72;10365809;28;20045;-77
2022/10/31 08:26:44;;;;;;;33.88;20.77;;;;;;;10.03;100.00;101780.97;10374377;28;20143;-78
2022/10/31 08:31:45;;;;;;;36.95;21.02;;;;;;;10.53;100.00;101771.03;10359952;28;20054;-77
2022/10/31 08:36:46;;;;;;;42.00;20.92;;;;;;;10.99;100.00;101752.91;10394776;28;20034;-77
2022/10/31 08:41:46;;;;;;;30.05;17.90;;;;;;;11.22;100.00;101747.22;10400533;28;20099;-77
2022/10/31 08:46:47;;;;;;;32.72;16.48;;;;;;;11.44;100.00;101742.41;10386503;28;20036;-77
2022/10/31 08:51:48;;;;;;;40.72;26.02;;;;;;;11.98;100.00;101730.56;10386119;28;20037;-78
2022/10/31 08:56:53;;;;;;;29.33;17.17;;;;;;;12.53;100.00;101721.31;10362311;28;20506;-77
2022/10/31 09:01:54;;;;;;;31.25;20.88;;;;;;;12.82;100.00;101725.44;10365823;28;20042;-78
2022/10/31 09:06:54;;;;;;;31.15;19.20;;;;;;;13.21;100.00;101720.44;10361167;28;20048;-78
2022/10/31 09:11:55;;;;;;;34.92;20.73;;;;;;;13.56;100.00;101703.75;10387244;28;20117;-77
2022/10/31 09:16:55;;;;;;;35.33;21.88;;;;;;;14.03;100.00;101689.31;10382570;28;20129;-78
2022/10/31 09:21:56;;;;;;;33.15;22.77;;;;;;;14.49;100.00;101682.63;10378790;28;20540;-78
2022/10/31 09:26:57;;;;;;;37.60;22.63;;;;;;;14.70;100.00;101675.63;10372146;28;20048;-77
2022/10/31 09:31:58;;;;;;;40.55;22.80;;;;;;;15.15;98.53;101652.06;10352044;28;20074;-77
2022/10/31 09:36:58;;;;;;;40.47;22.08;;;;;;;15.59;97.59;101644.16;10374414;28;20184;-77
2022/10/31 09:42:16;;;;;;;35.65;19.85;;;;;;;16.09;92.29;101651.38;10382811;28;20042;-77
2022/10/31 09:47:31;;;;;;;31.48;19.83;;;;;;;17.31;86.80;101637.09;10327914;28;20100;-77
2022/10/31 09:52:40;;;;;;;32.00;17.77;;;;;;;18.27;80.36;101636.47;10362509;28;20045;-77
2022/10/31 09:57:41;;;;;;;30.00;18.75;;;;;;;18.59;76.67;101631.16;10361333;28;20034;-78
2022/10/31 10:02:51;;;;;;;30.17;18.25;;;;;;;18.59;76.14;101620.56;10361430;28;20053;-77
2022/10/31 10:08:13;;;;;;;29.63;18.50;;;;;;;18.55;75.57;101609.81;10396144;28;20125;-77
2022/10/31 10:13:19;;;;;;;;;;;;;;;17.99;76.13;101608.25;10405396;28;20095;-78
2022/10/31 10:18:22;;;;;;;35.92;19.60;;;;;;;18.20;77.26;101610.66;10364041;28;20366;-78
2022/10/31 10:23:38;;;;;;;31.75;17.90;;;;;;;18.17;75.23;101592.91;10361896;28;20494;-77
2022/10/31 10:28:40;;;;;;;40.72;20.25;;;;;;;17.29;77.79;101580.59;10361689;28;20042;-77
2022/10/31 10:33:52;;;;;;;26.00;17.52;;;;;;;16.63;81.65;101557.28;10361875;28;20137;-79
2022/10/31 10:39:05;;;;;;;26.25;18.20;;;;;;;16.22;84.57;101553.25;10360320;28;20124;-77
2022/10/31 10:44:07;;;;;;;;;;;;;;;15.99;85.04;101585.03;10344566;28;20038;-77
2022/10/31 10:49:19;;;;;;;;;;;;;;;16.05;84.05;101583.44;10358162;28;19972;-77
2022/10/31 10:54:41;;;;;;;27.20;15.35;;;;;;;16.34;83.00;101581.84;10345164;28;19952;-75
2022/10/31 10:59:42;;;;;;;27.73;15.13;;;;;;;16.13;83.15;101582.88;10335148;28;20497;-76
2022/10/31 11:04:42;;;;;;;26.45;14.23;;;;;;;16.20;84.01;101594.56;10361854;28;20046;-75
2022/10/31 11:09:43;;;;;;;31.60;14.70;;;;;;;16.14;85.54;101581.13;10323780;28;20054;-75
2022/10/31 11:14:55;;;;;;;25.45;15.25;;;;;;;16.43;83.61;101568.94;10357182;28;20105;-78
2022/10/31 11:20:04;;;;;;;30.92;15.52;;;;;;;16.25;83.51;101531.34;10342260;28;20065;-78
2022/10/31 11:25:21;;;;;;;20.58;12.95;;;;;;;16.18;83.95;101522.31;10342879;28;20040;-78
2022/10/31 11:30:22;;;;;;;25.23;13.40;;;;;;;16.00;84.96;101519.91;10356409;28;20044;-77
2022/10/31 11:35:22;;;;;;;26.25;15.50;;;;;;;16.09;84.85;101522.00;10359026;28;20075;-77
2022/10/31 11:40:25;;;;;;;23.05;13.55;;;;;;;16.14;83.75;101508.09;10356846;28;20048;-79
2022/10/31 11:45:32;;;;;;;;;;;;;;;16.25;84.53;101507.56;10340549;28;20044;-79
2022/10/31 11:50:37;;;;;;;23.45;13.90;;;;;;;16.57;82.80;101494.53;10359958;28;20064;-79
2022/10/31 11:55:37;;;;;;;29.55;13.63;;;;;;;16.69;82.41;101481.72;10361396;28;20046;-79
2022/10/31 12:00:40;;;;;;;25.52;12.50;;;;;;;16.87;80.95;101459.38;10355323;28;20057;-80
2022/10/31 12:05:41;;;;;;;25.15;13.55;;;;;;;16.92;80.87;101449.84;10357819;28;20046;-78
2022/10/31 12:10:46;;;;;;;22.25;13.10;;;;;;;16.94;79.56;101434.03;10340284;28;20057;-78
2022/10/31 12:15:52;;;;;;;24.55;14.98;;;;;;;16.82;80.91;101413.41;10357164;28;20072;-79
2022/10/31 12:21:19;;;;;;;31.02;14.77;;;;;;;16.80;80.84;101399.22;10340086;28;20152;-79
2022/10/31 12:26:27;;;;;;;32.40;18.33;;;;;;;16.86;81.65;101379.19;10357043;28;20038;-80
2022/10/31 12:32:05;;;;;;;26.42;13.75;;;;;;;17.14;80.99;101390.63;10356322;28;20096;-80
2022/10/31 12:37:30;;;;;;;25.65;13.40;;;;;;;16.90;81.13;101369.59;10357518;28;20100;-77
2022/10/31 12:42:50;;;;;;;27.20;15.25;;;;;;;16.84;81.33;101350.91;10356356;28;20416;-78
2022/10/31 12:48:28;;;;;;;19.20;11.85;;;;;;;16.76;80.50;101345.41;10370459;28;20041;-77
2022/10/31 12:54:11;;;;;;;19.77;11.55;;;;;;;16.66;82.22;101338.94;10349555;28;20046;-79
2022/10/31 12:59:31;;;;;;;24.00;11.65;;;;;;;16.55;82.51;101333.34;10260441;28;20141;-78
2022/10/31 13:04:42;;;;;;;15.75;10.27;;;;;;;16.72;80.46;101325.00;10393667;28;20049;-78
2022/10/31 13:09:48;;;;;;;31.45;10.55;;;;;;;16.79;80.50;101312.84;10349081;28;20124;-78
2022/10/31 13:14:54;;;;;;;20.52;10.13;;;;;;;16.92;79.68;101306.19;10369537;28;20456;-77
2022/10/31 13:20:24;;;;;;;18.88;9.80;;;;;;;16.87;80.08;101288.47;10322799;28;20030;-79
2022/10/31 13:25:28;;;;;;;15.68;10.45;;;;;;;16.99;79.69;101279.13;10355537;28;20042;-81
2022/10/31 13:30:37;;;;;;;24.63;9.93;;;;;;;17.26;79.18;101260.44;10347189;28;20069;-80
2022/10/31 13:35:48;;;;;;;22.98;10.07;;;;;;;17.64;77.95;101257.00;10359289;28;20049;-81
2022/10/31 13:41:01;;;;;;;26.27;11.68;;;;;;;17.91;76.69;101248.81;10357378;28;20038;-79
2022/10/31 13:46:01;;;;;;;17.27;10.05;;;;;;;17.89;75.55;101228.47;10361248;28;20069;-80
2022/10/31 13:51:06;;;;;;;24.33;12.88;;;;;;;18.67;72.24;101209.84;10361512;28;20459;-80
2022/10/31 13:56:26;;;;;;;16.88;9.55;;;;;;;18.79;71.69;101212.72;10349792;28;20136;-80
2022/10/31 14:01:28;;;;;;;18.67;8.50;;;;;;;19.16;71.03;101193.06;10359342;28;20050;-80
2022/10/31 14:07:03;;;;;;;23.95;8.40;;;;;;;19.17;68.97;101179.84;10370643;28;20120;-79
2022/10/31 14:12:12;;;;;;;11.93;7.72;;;;;;;18.92;71.64;101173.19;10375836;28;20041;-81
2022/10/31 14:17:20;;;;;;;20.73;10.02;;;;;;;19.72;66.97;101159.47;10373536;28;20042;-79
2022/10/31 14:22:21;;;;;;;14.35;6.93;;;;;;;19.47;67.20;101159.09;10349881;28;20099;-79
2022/10/31 14:27:28;;;;;;;19.77;6.72;;;;;;;18.86;68.22;101142.16;10401057;28;20456;-79
2022/10/31 14:32:28;;;;;;;15.02;6.80;;;;;;;18.46;69.61;101152.88;10398043;28;20068;-79
2022/10/31 14:37:50;;;;;;;17.23;6.82;;;;;;;17.94;71.84;101167.66;10378575;28;20570;-80
2022/10/31 14:43:13;;;;;;;13.50;8.25;;;;;;;17.99;72.32;101156.31;10322466;28;20129;-78
2022/10/31 14:48:51;;;;;;;14.93;5.65;;;;;;;17.79;72.82;101137.34;10322328;28;20046;-79
2022/10/31 14:53:53;;;;;;;15.85;6.15;;;;;;;17.25;74.46;101131.69;10334882;28;20123;-81
2022/10/31 14:58:57;;;;;;;17.98;7.88;;;;;;;16.65;78.67;101117.81;10342544;28;20038;-80
2022/10/31 15:04:24;;;;;;;18.25;5.80;;;;;;;16.18;80.87;101115.66;10344250;28;20383;-80
2022/10/31 15:09:29;;;;;;;18.27;7.57;;;;;;;16.04;82.23;101109.09;10360350;28;20045;-80
2022/10/31 15:14:31;;;;;;;12.32;5.93;;;;;;;15.95;81.17;101093.84;10359210;28;20045;-78
2022/10/31 15:19:33;;;;;;;12.05;7.07;;;;;;;15.98;82.84;101086.94;10358184;28;20041;-81
2022/10/31 15:24:35;;;;;;;16.98;6.93;;;;;;;15.82;82.33;101082.03;10357379;28;20061;-79
2022/10/31 15:29:36;;;;;;;17.05;6.13;;;;;;;15.70;82.74;101070.25;10342435;28;20081;-79
2022/10/31 15:34:41;;;;;;;14.35;7.07;;;;;;;15.40;83.38;101059.66;10360021;28;20124;-78
2022/10/31 15:39:42;;;;;;;18.77;7.60;;;;;;;15.11;85.15;101052.63;10373324;28;20101;-78
2022/10/31 15:44:43;;;;;;;17.38;7.50;;;;;;;14.68;87.78;101049.44;10340663;28;20069;-80
2022/10/31 15:49:51;;;;;;;14.85;7.40;;;;;;;14.31;89.77;101048.16;10357394;28;20054;-77
2022/10/31 15:55:17;;;;;;;17.42;7.13;;;;;;;13.92;92.82;101045.88;10338374;28;20072;-79
2022/10/31 16:00:30;;;;;;;12.30;5.18;;;;;;;13.69;93.39;101043.31;10342302;28;20037;-77
2022/10/31 16:05:43;;;;;;;20.38;9.05;;;;;;;13.43;95.51;101039.69;10356980;28;20576;-77
2022/10/31 16:10:43;;;;;;;15.98;7.35;;;;;;;13.49;95.19;101029.41;10358755;28;20049;-77
2022/10/31 16:15:59;;;;;;;12.32;6.65;;;;;;;13.49;94.99;101029.41;10357033;28;20053;-78
2022/10/31 16:20:59;;;;;;;17.08;7.57;;;;;;;13.39;95.32;101028.09;10355180;28;20121;-79
2022/10/31 16:26:05;;;;;;;18.40;9.65;;;;;;;13.43;95.51;101018.66;10340339;28;20446;-78
2022/10/31 16:31:13;;;;;;;14.52;6.95;;;;;;;13.18;95.65;101025.56;10338875;28;20371;-77
2022/10/31 16:36:33;;;;;;;19.88;7.78;;;;;;;12.99;96.71;101035.34;10339655;28;20057;-78
2022/10/31 16:41:36;;;;;;;13.05;6.53;;;;;;;12.87;97.89;101029.56;10351240;28;20099;-80
2022/10/31 16:46:37;;;;;;;9.80;5.05;;;;;;;12.97;98.06;101031.75;10351672;28;20048;-79
2022/10/31 16:51:38;;;;;;;19.23;7.03;;;;;;;12.99;97.78;101034.41;10364049;28;20505;-80
2022/10/31 16:56:38;;;;;;;19.90;6.25;;;;;;;12.83;98.50;101031.16;10357342;28;20048;-78
2022/10/31 17:01:39;;;;;;;18.48;7.80;;;;;;;12.65;100.00;101038.28;10350733;28;20123;-78
2022/10/31 17:06:41;;;;;;;18.00;8.32;;;;;;;12.52;100.00;101036.88;10347509;28;20045;-78
2022/10/31 17:11:45;;;;;;;15.18;8.32;;;;;;;12.36;100.00;101017.84;10345983;28;20038;-78
2022/10/31 17:16:46;;;;;;;17.15;6.70;;;;;;;12.21;100.00;101010.22;10345857;28;20038;-80
2022/10/31 17:21:46;;;;;;;20.42;6.78;;;;;;;12.08;100.00;101010.50;10364826;28;20041;-77
2022/10/31 17:26:47;;;;;;;15.18;7.05;;;;;;;11.99;100.00;100992.63;10344597;28;20048;-78
2022/10/31 17:31:48;;;;;;;13.73;8.23;;;;;;;11.95;100.00;100995.94;10358109;28;20029;-78
2022/10/31 17:36:50;;;;;;;17.95;7.75;;;;;;;11.92;100.00;100986.19;10357924;28;20033;-78
2022/10/31 17:41:51;;;;;;;15.50;6.05;;;;;;;12.10;100.00;100986.16;10388489;28;20045;-78
2022/10/31 17:46:51;;;;;;;12.00;6.45;;;;;;;11.99;100.00;100975.13;10372237;28;20042;-80
2022/10/31 17:51:52;;;;;;;21.58;6.70;;;;;;;11.85;100.00;100973.63;10383221;28;20065;-79
2022/10/31 17:56:54;;;;;;;17.20;8.02;;;;;;;11.67;100.00;100955.38;10366954;28;20037;-77
2022/10/31 18:01:55;;;;;;;14.35;8.50;;;;;;;11.51;100.00;100979.97;10361255;28;20030;-78
2022/10/31 18:06:55;;;;;;;19.03;7.03;;;;;;;11.22;100.00;100985.69;10376759;28;20046;-77
2022/10/31 18:11:56;;;;;;;18.85;8.15;;;;;;;11.06;100.00;100985.78;10345528;28;20172;-77
2022/10/31 18:16:57;;;;;;;20.50;7.25;;;;;;;11.06;100.00;100970.94;10363308;28;20038;-77
2022/10/31 18:21:57;;;;;;;20.20;7.75;;;;;;;10.97;100.00;100968.81;10359179;28;20050;-79
2022/10/31 18:26:58;;;;;;;18.08;7.25;;;;;;;10.91;100.00;100960.66;10355627;28;20433;-77
2022/10/31 18:31:58;;;;;;;17.02;6.47;;;;;;;10.87;100.00;100946.50;10362255;28;20498;-77
2022/10/31 18:36:59;;;;;;;25.25;8.65;;;;;;;10.68;100.00;100949.06;10339288;28;20129;-78
2022/10/31 18:41:59;;;;;;;23.05;8.10;;;;;;;10.64;100.00;100948.03;10363140;28;20052;-78
2022/10/31 18:47:00;;;;;;;15.85;7.10;;;;;;;10.85;100.00;100955.13;10349906;28;20038;-78
2022/10/31 18:52:00;;;;;;;23.52;8.82;;;;;;;10.79;100.00;100952.22;10359991;28;20099;-78
2022/10/31 18:57:01;;;;;;;14.23;7.40;;;;;;;10.79;100.00;100944.38;10357971;28;20515;-77
2022/10/31 19:02:01;;;;;;;22.42;10.13;;;;;;;10.93;100.00;100939.78;10361937;28;20041;-77
2022/10/31 19:07:02;;;;;;;18.38;8.63;;;;;;;10.68;100.00;100942.13;10360530;28;20034;-77
2022/10/31 19:12:02;;;;;;;15.40;7.45;;;;;;;10.51;100.00;100940.41;10358842;28;20069;-77
2022/10/31 19:17:03;;;;;;;13.55;7.47;;;;;;;10.24;100.00;100939.06;10359440;28;20046;-77
2022/10/31 19:22:04;;;;;;;27.33;8.10;;;;;;;10.01;100.00;100931.78;10342569;28;20055;-77
2022/10/31 19:27:04;;;;;;;16.13;9.57;;;;;;;9.98;100.00;100943.00;10356347;28;20316;-78
2022/10/31 19:32:05;;;;;;;23.05;11.13;;;;;;;9.89;100.00;100943.41;10355933;28;20044;-78
2022/10/31 19:37:05;;;;;;;17.88;7.50;;;;;;;9.75;100.00;100933.94;10356406;28;20474;-77
2022/10/31 19:42:06;;;;;;;17.25;8.85;;;;;;;9.76;100.00;100930.53;10357983;28;20117;-78
2022/10/31 19:47:06;;;;;;;22.98;10.18;;;;;;;9.77;100.00;100933.22;10338638;28;20398;-77
2022/10/31 19:52:07;;;;;;;14.88;9.98;;;;;;;9.77;100.00;100937.53;10356686;28;20052;-77
2022/10/31 19:57:07;;;;;;;20.63;9.13;;;;;;;9.70;100.00;100945.06;10355652;28;20125;-78
2022/10/31 20:02:15;;;;;;;22.70;9.48;;;;;;;9.62;100.00;100942.88;10358751;28;20114;-77
2022/10/31 20:07:16;;;;;;;23.60;8.85;;;;;;;9.54;100.00;100929.41;10340534;28;20060;-77
2022/10/31 20:12:16;;;;;;;19.98;9.93;;;;;;;9.42;100.00;100929.66;10356946;28;20045;-77
2022/10/31 20:17:17;;;;;;;23.15;9.98;;;;;;;9.47;100.00;100924.66;10339509;28;20497;-77
2022/10/31 20:22:18;;;;;;;22.13;10.55;;;;;;;9.47;100.00;100906.38;10353323;28;20494;-77
2022/10/31 20:27:18;;;;;;;20.33;10.70;;;;;;;9.44;100.00;100904.50;10353980;28;20497;-76
2022/10/31 20:32:19;;;;;;;27.98;10.30;;;;;;;9.42;100.00;100897.41;10356087;28;20042;-76
2022/10/31 20:37:19;;;;;;;17.83;10.23;;;;;;;9.43;100.00;100894.88;10340741;28;20060;-76
2022/10/31 20:42:20;;;;;;;24.20;10.75;;;;;;;9.41;100.00;100888.69;10364567;28;20085;-76
2022/10/31 20:47:21;;;;;;;27.40;10.32;;;;;;;9.38;100.00;100878.06;10363889;28;20057;-78
2022/10/31 20:52:21;;;;;;;17.40;8.93;;;;;;;9.39;100.00;100866.81;10363206;28;20048;-77
2022/10/31 20:57:22;;;;;;;20.45;11.30;;;;;;;9.37;100.00;100861.47;10362960;28;20053;-77
2022/10/31 21:02:22;;;;;;;19.25;9.55;;;;;;;9.32;100.00;100860.34;10364101;28;20042;-77
2022/10/31 21:07:23;;;;;;;16.42;9.13;;;;;;;9.22;100.00;100856.38;10345766;28;20050;-77
2022/10/31 21:12:23;;;;;;;15.73;8.70;;;;;;;9.18;100.00;100858.72;10363311;28;20164;-77
2022/10/31 21:17:24;;;;;;;16.33;9.68;;;;;;;9.23;100.00;100855.53;10361732;28;20432;-77
2022/10/31 21:22:25;;;;;;;25.42;9.95;;;;;;;9.21;100.00;100861.50;10361471;28;20042;-77
2022/10/31 21:27:26;;;;;;;18.77;9.30;;;;;;;9.21;100.00;100851.03;10363550;28;20030;-76
2022/10/31 21:32:26;;;;;;;26.08;10.70;;;;;;;9.32;100.00;100846.41;10362166;28;20125;-77
2022/10/31 21:37:27;;;;;;;24.15;11.35;;;;;;;9.34;100.00;100843.03;10346033;28;20125;-79
2022/10/31 21:42:27;;;;;;;25.02;12.45;;;;;;;9.36;100.00;100827.47;10364655;28;20121;-79
2022/10/31 21:47:28;;;;;;;23.30;8.38;;;;;;;9.38;100.00;100831.94;10361872;28;20473;-78
2022/10/31 21:52:28;;;;;;;19.98;10.13;;;;;;;9.49;100.00;100824.66;10364348;28;20168;-79
2022/10/31 21:57:29;;;;;;;16.98;9.15;;;;;;;9.60;100.00;100817.34;10363105;28;20037;-79
2022/10/31 22:02:29;;;;;;;20.42;10.98;;;;;;;9.75;100.00;100798.03;10363945;28;20121;-78
2022/10/31 22:07:30;;;;;;;15.52;9.43;;;;;;;9.89;100.00;100815.31;10378811;28;20092;-78
2022/10/31 22:12:31;;;;;;;15.60;8.82;;;;;;;10.10;100.00;100820.72;10363255;28;20046;-78
2022/10/31 22:17:31;;;;;;;22.30;8.65;;;;;;;10.21;100.00;100826.44;10362988;28;20479;-79
2022/10/31 22:22:32;;;;;;;22.80;8.93;;;;;;;10.37;100.00;100827.19;10363897;28;20041;-78
2022/10/31 22:27:32;;;;;;;15.68;8.25;;;;;;;10.35;100.00;100831.44;10363491;28;20116;-78
2022/10/31 22:32:33;;;;;;;16.80;8.27;;;;;;;10.36;100.00;100814.94;10361892;28;20026;-78
2022/10/31 22:37:33;;;;;;;22.25;8.25;;;;;;;10.42;100.00;100810.94;10362296;28;20042;-78
2022/10/31 22:42:34;;;;;;;25.10;9.15;;;;;;;10.50;100.00;100810.41;10363360;28;20065;-78
2022/10/31 22:47:34;;;;;;;15.18;8.15;;;;;;;10.59;100.00;100797.75;10360520;28;20121;-78